createdAt,value
2022-12-28T00:00:03.124Z,4.8
2022-12-28T00:10:02.045Z,4.6
2022-12-28T00:15:04.248Z,3.6
2022-12-28T00:20:00.924Z,3.8
2022-12-28T00:25:01.881Z,3.2
2022-12-28T00:30:03.161Z,2.8
2022-12-28T00:35:05.972Z,2.9
2022-12-28T00:40:05.939Z,2.7
2022-12-28T00:45:01.365Z,2.5
2022-12-28T00:50:01.312Z,2.8
2022-12-28T01:00:01.643Z,3.2
2022-12-28T01:05:00.933Z,3.4
2022-12-28T01:15:02.200Z,3.4
2022-12-28T01:20:00.967Z,3.5
2022-12-28T01:25:00.948Z,3.3
2022-12-28T01:30:11.974Z,3.2
2022-12-28T01:35:00.936Z,2.8
2022-12-28T01:40:00.960Z,3.0
2022-12-28T01:45:15.152Z,3.1
2022-12-28T01:50:00.947Z,2.9
2022-12-28T01:55:02.040Z,2.8
2022-12-28T02:00:05.245Z,3.1
2022-12-28T02:05:00.935Z,2.9
2022-12-28T02:10:40.300Z,2.8
2022-12-28T02:15:02.291Z,2.8
2022-12-28T02:30:06.037Z,3.0
2022-12-28T02:40:00.953Z,3.2
2022-12-28T02:45:01.578Z,3.2
2022-12-28T02:50:00.975Z,2.8
2022-12-28T02:55:01.813Z,2.6
2022-12-28T03:00:12.831Z,2.8
2022-12-28T03:05:00.954Z,2.9
2022-12-28T03:10:00.989Z,3.2
2022-12-28T03:15:07.360Z,3.8
2022-12-28T03:20:06.227Z,4.3
2022-12-28T03:25:00.944Z,4.6
2022-12-28T03:30:04.900Z,4.5
2022-12-28T03:35:00.954Z,4.3
2022-12-28T03:40:00.944Z,3.9
2022-12-28T03:45:15.247Z,3.9
2022-12-28T03:50:00.954Z,4.0
2022-12-28T03:55:05.956Z,3.6
2022-12-28T04:00:01.978Z,3.6
2022-12-28T04:05:00.987Z,3.8
2022-12-28T04:10:00.958Z,3.3
2022-12-28T04:15:01.341Z,2.7
2022-12-28T04:20:00.955Z,2.6
2022-12-28T04:25:00.987Z,2.4
2022-12-28T04:30:01.600Z,2.1
2022-12-28T04:35:01.135Z,2.0
2022-12-28T04:45:01.448Z,2.4
2022-12-28T04:50:00.955Z,2.2
2022-12-28T04:55:00.957Z,1.8
2022-12-28T05:00:07.957Z,1.8
2022-12-28T05:10:05.951Z,1.6
2022-12-28T05:15:01.367Z,1.6
2022-12-28T05:20:03.676Z,1.8
2022-12-28T05:25:01.007Z,1.7
2022-12-28T05:30:02.477Z,1.5
2022-12-28T05:35:00.959Z,1.4
2022-12-28T05:40:00.988Z,1.2
2022-12-28T05:45:01.799Z,1.2
2022-12-28T05:50:00.970Z,1.1
2022-12-28T05:55:00.962Z,1.3
2022-12-28T06:00:07.003Z,1.3
2022-12-28T06:05:00.977Z,1.4
2022-12-28T06:15:04.082Z,1.6
2022-12-28T06:30:01.536Z,1.8
2022-12-28T06:35:06.444Z,2.3
2022-12-28T06:40:00.986Z,3.8
2022-12-28T06:45:01.529Z,4.6
2022-12-28T06:50:01.001Z,5.8
2022-12-28T06:55:00.973Z,7.0
2022-12-28T07:00:01.461Z,6.4
2022-12-28T07:05:01.015Z,4.8
2022-12-28T07:10:01.407Z,3.8
2022-12-28T07:15:16.176Z,2.6
2022-12-28T07:20:05.974Z,1.5
2022-12-28T07:25:01.020Z,1.9
2022-12-28T07:30:06.976Z,1.9
2022-12-28T07:35:01.028Z,1.8
2022-12-28T07:40:00.975Z,3.6
2022-12-28T07:45:01.416Z,4.1
2022-12-28T07:50:02.457Z,4.2
2022-12-28T08:00:02.626Z,4.4
2022-12-28T08:05:00.991Z,3.1
2022-12-28T08:10:04.309Z,2.6
2022-12-28T08:15:01.546Z,2.1
2022-12-28T08:20:00.981Z,2.2
2022-12-28T08:25:01.568Z,3.0
2022-12-28T08:30:01.840Z,2.8
2022-12-28T08:40:00.983Z,3.6
2022-12-28T08:45:11.582Z,4.4
2022-12-28T08:50:05.983Z,3.7
2022-12-28T09:00:07.102Z,3.8
2022-12-28T09:05:01.429Z,3.4
2022-12-28T09:10:01.030Z,2.5
2022-12-28T09:15:01.359Z,2.7
2022-12-28T09:25:01.033Z,2.6
2022-12-28T09:30:01.702Z,2.7
2022-12-28T10:00:03.656Z,1.0
2022-12-28T10:10:07.094Z,0.9
2022-12-28T10:15:05.578Z,1.0
2022-12-28T10:20:01.236Z,1.4
2022-12-28T10:25:01.137Z,1.6
2022-12-28T10:41:03.043Z,1.6
2022-12-28T10:46:01.070Z,1.2
2022-12-28T10:51:16.574Z,1.1
2022-12-28T10:56:01.074Z,1.2
2022-12-28T11:01:01.213Z,1.3
2022-12-28T11:16:06.166Z,1.0
2022-12-28T11:21:01.075Z,0.9
2022-12-28T11:31:06.064Z,0.8
2022-12-28T11:36:03.443Z,1.2
2022-12-28T11:41:06.796Z,1.1
2022-12-28T11:46:01.121Z,1.3
2022-12-28T11:51:04.741Z,1.7
2022-12-28T11:56:02.679Z,1.8
2022-12-28T12:01:01.102Z,1.9
2022-12-28T12:11:01.104Z,1.5
2022-12-28T12:16:01.063Z,1.7
2022-12-28T12:21:10.216Z,1.8
2022-12-28T12:26:01.067Z,1.3
2022-12-28T12:31:01.146Z,1.7
2022-12-28T12:36:08.471Z,2.1
2022-12-28T12:41:01.062Z,1.5
2022-12-28T12:46:01.085Z,0.9
2022-12-28T12:51:01.169Z,1.3
2022-12-28T12:56:06.102Z,0.8
2022-12-28T13:01:01.212Z,0.4
2022-12-28T13:06:06.134Z,0.8
2022-12-28T13:11:06.753Z,0.9
2022-12-28T13:16:06.123Z,0.8
2022-12-28T13:21:12.235Z,1.2
2022-12-28T13:26:01.086Z,1.4
2022-12-28T13:31:01.375Z,1.2
2022-12-28T13:36:06.057Z,1.3
2022-12-28T13:41:01.066Z,1.7
2022-12-28T13:46:01.133Z,2.2
2022-12-28T13:56:06.058Z,2.6
2022-12-28T14:01:01.109Z,2.8
2022-12-28T14:06:01.105Z,2.4
2022-12-28T14:11:01.063Z,1.8
2022-12-28T14:16:01.119Z,1.4
2022-12-28T14:21:01.107Z,1.0
2022-12-28T14:26:01.123Z,1.4
2022-12-28T14:31:04.501Z,1.5
2022-12-28T14:42:01.126Z,2.6
2022-12-28T14:47:06.833Z,3.0
2022-12-28T14:52:01.064Z,2.6
2022-12-28T14:57:01.080Z,2.8
2022-12-28T15:02:01.205Z,2.9
2022-12-28T15:07:01.049Z,3.2
2022-12-28T15:12:02.335Z,3.4
2022-12-28T15:17:01.135Z,3.8
2022-12-28T15:22:01.103Z,4.1
2022-12-28T15:32:01.061Z,4.3
2022-12-28T15:37:01.800Z,4.4
2022-12-28T15:42:06.112Z,4.8
2022-12-28T15:47:01.090Z,5.7
2022-12-28T15:52:06.064Z,6.0
2022-12-28T16:02:01.402Z,5.3
2022-12-28T16:07:01.130Z,4.9
2022-12-28T16:12:06.180Z,4.8
2022-12-28T16:17:06.129Z,4.7
2022-12-28T16:22:02.695Z,4.3
2022-12-28T16:27:01.632Z,5.6
2022-12-28T16:32:06.738Z,6.3
2022-12-28T16:37:02.732Z,5.9
2022-12-28T16:42:01.049Z,6.1
2022-12-28T16:47:01.095Z,7.4
2022-12-28T16:52:02.482Z,6.5
2022-12-28T16:57:01.081Z,6.6
2022-12-28T17:02:01.321Z,7.8
2022-12-28T17:07:01.154Z,8.1
2022-12-28T17:12:01.067Z,7.8
2022-12-28T17:17:01.111Z,8.0
2022-12-28T17:22:06.061Z,8.5
2022-12-28T17:27:07.125Z,10.5
2022-12-28T17:32:01.091Z,12.8
2022-12-28T17:37:01.443Z,14.4
2022-12-28T17:42:01.274Z,14.1
2022-12-28T17:47:01.073Z,13.6
2022-12-28T17:52:03.322Z,10.6
2022-12-28T17:57:01.087Z,8.1
2022-12-28T18:02:01.321Z,6.1
2022-12-28T18:07:01.080Z,7.5
2022-12-28T18:12:03.221Z,7.9
2022-12-28T18:17:01.198Z,8.4
2022-12-28T18:22:06.088Z,8.1
2022-12-28T18:32:01.228Z,6.9
2022-12-28T18:37:01.541Z,6.4
2022-12-28T18:42:06.132Z,6.2
2022-12-28T18:47:01.057Z,7.2
2022-12-28T18:52:06.119Z,6.8
2022-12-28T18:57:01.054Z,7.1
2022-12-28T19:02:10.770Z,7.7
2022-12-28T19:07:01.085Z,7.1
2022-12-28T19:12:01.082Z,6.4
2022-12-28T19:17:01.164Z,7.0
2022-12-28T19:27:01.287Z,5.7
2022-12-28T19:32:01.151Z,5.6
2022-12-28T19:37:01.069Z,6.0
2022-12-28T19:42:01.333Z,7.4
2022-12-28T19:47:01.086Z,7.9
2022-12-28T19:52:06.083Z,8.8
2022-12-28T19:57:06.796Z,9.6
2022-12-28T20:02:06.246Z,10.2
2022-12-28T20:07:01.108Z,9.6
2022-12-28T20:12:01.080Z,9.0
2022-12-28T20:17:06.106Z,9.6
2022-12-28T20:22:06.104Z,10.1
2022-12-28T20:27:01.810Z,9.6
2022-12-28T20:32:06.105Z,10.2
2022-12-28T20:37:01.058Z,11.4
2022-12-28T20:42:01.077Z,12.3
2022-12-28T20:52:01.097Z,11.9
2022-12-28T20:57:06.209Z,9.6
2022-12-28T21:02:06.177Z,7.8
2022-12-28T21:07:01.066Z,5.5
2022-12-28T21:12:07.221Z,3.4
2022-12-28T21:17:01.064Z,2.6
2022-12-28T21:22:06.068Z,2.8
2022-12-28T21:27:01.096Z,2.6
2022-12-28T21:32:01.166Z,2.4
2022-12-28T21:37:01.082Z,2.6
2022-12-28T21:42:06.095Z,2.4
2022-12-28T21:47:01.077Z,2.0
2022-12-28T21:52:06.099Z,1.8
2022-12-28T21:58:06.121Z,2.3
2022-12-28T22:03:06.121Z,2.6
2022-12-28T22:08:06.132Z,3.0
2022-12-28T22:13:01.760Z,4.1
2022-12-28T22:18:01.063Z,4.4
2022-12-28T22:23:01.064Z,4.5
2022-12-28T22:28:06.098Z,5.4
2022-12-28T22:33:01.069Z,7.2
2022-12-28T22:38:06.066Z,7.1
2022-12-28T22:43:01.062Z,7.6
2022-12-28T22:48:06.110Z,7.4
2022-12-28T22:53:06.069Z,6.0
2022-12-28T22:58:06.805Z,4.2
2022-12-28T23:03:06.122Z,4.4
2022-12-28T23:08:06.085Z,3.9
2022-12-28T23:13:01.073Z,3.6
2022-12-28T23:18:01.060Z,3.7
2022-12-28T23:23:01.117Z,3.3
2022-12-28T23:28:01.347Z,2.2
2022-12-28T23:33:06.069Z,1.8
2022-12-28T23:43:01.930Z,1.6
2022-12-28T23:48:03.763Z,1.5
2022-12-28T23:53:01.889Z,1.2
2022-12-28T23:58:02.124Z,1.0
